Time;durP1;ratioP1;P1;durP2;ratioP2;P2;SDS_P1;SDS_P2;PMS_P1;PMS_P2;Temp;Humidity;BMP_temperature;BMP_pressure;BME280_temperature;BME280_humidity;BME280_pressure;Samples;Min_cycle;Max_cycle;Signal;HPM_P1;HPM_P2
2022/07/27 00:01:50;;;;;;;4.30;3.08;;;;;;;19.35;59.30;98908.39;1743514;82;21096;-44
2022/07/27 00:04:18;;;;;;;5.15;3.00;;;;;;;19.33;59.74;98904.50;1743459;82;21313;-45
2022/07/27 00:06:45;;;;;;;6.42;3.22;;;;;;;19.30;60.40;98899.88;1743559;82;21030;-45
2022/07/27 00:09:14;;;;;;;5.40;3.05;;;;;;;19.23;61.44;98893.94;1743406;82;20941;-44
2022/07/27 00:11:41;;;;;;;11.68;4.30;;;;;;;19.21;62.02;98897.73;1743544;82;21518;-44
2022/07/27 00:14:08;;;;;;;11.43;4.22;;;;;;;19.24;62.12;98907.86;1743372;82;20997;-45
2022/07/27 00:16:35;;;;;;;7.12;2.92;;;;;;;19.27;61.60;98900.11;1743526;82;22186;-44
2022/07/27 00:19:02;;;;;;;7.67;3.10;;;;;;;19.27;61.11;98900.72;1743747;82;21460;-44
2022/07/27 00:21:31;;;;;;;4.85;3.47;;;;;;;19.27;60.79;98902.09;1743381;82;20941;-44
2022/07/27 00:23:58;;;;;;;6.15;3.08;;;;;;;19.27;60.33;98911.11;1743699;82;21484;-44
2022/07/27 00:26:25;;;;;;;5.17;3.62;;;;;;;19.27;60.31;98905.61;1750304;82;21076;-45
2022/07/27 00:28:52;;;;;;;6.12;3.75;;;;;;;19.26;59.64;98903.31;1751627;82;21615;-44
2022/07/27 00:31:19;;;;;;;5.62;3.55;;;;;;;19.25;59.21;98905.28;1751641;82;21491;-44
2022/07/27 00:33:46;;;;;;;5.08;3.08;;;;;;;19.25;58.99;98911.37;1751320;82;20956;-45
2022/07/27 00:36:15;;;;;;;7.45;3.58;;;;;;;19.23;59.22;98911.80;1751387;82;20977;-44
2022/07/27 00:38:42;;;;;;;7.70;3.60;;;;;;;19.21;59.08;98908.72;1751591;82;21120;-44
2022/07/27 00:41:10;;;;;;;4.50;3.10;;;;;;;19.18;58.76;98909.56;1751366;82;21246;-44
2022/07/27 00:43:57;;;;;;;4.72;3.17;;;;;;;19.15;58.74;98912.39;1751144;82;21473;-45
2022/07/27 00:46:26;;;;;;;5.37;3.45;;;;;;;19.10;58.65;98912.30;1751795;82;21072;-44
2022/07/27 00:48:53;;;;;;;5.97;3.35;;;;;;;19.03;58.69;98909.11;1751631;82;20945;-45
2022/07/27 00:51:20;;;;;;;7.20;4.03;;;;;;;19.00;58.74;98910.56;1751446;82;20968;-44
2022/07/27 00:53:48;;;;;;;5.08;3.70;;;;;;;18.98;58.91;98901.38;1751384;82;21222;-45
2022/07/27 00:56:16;;;;;;;4.97;3.42;;;;;;;18.95;58.92;98902.23;1751678;82;21483;-44
2022/07/27 00:58:45;;;;;;;6.80;3.30;;;;;;;18.93;59.47;98905.22;1751519;82;21024;-44
2022/07/27 01:01:12;;;;;;;5.50;3.22;;;;;;;18.92;59.97;98900.95;1751856;82;21526;-44
2022/07/27 01:03:39;;;;;;;5.60;3.50;;;;;;;18.93;60.28;98906.59;1751590;82;21463;-44
2022/07/27 01:06:08;;;;;;;4.90;3.37;;;;;;;18.93;61.13;98906.59;1751694;82;21999;-44
2022/07/27 01:08:36;;;;;;;6.08;3.05;;;;;;;18.92;61.75;98902.32;1751476;82;21033;-44
2022/07/27 01:11:04;;;;;;;4.47;3.20;;;;;;;18.91;62.03;98909.01;1751682;82;20994;-44
2022/07/27 01:13:32;;;;;;;6.78;3.20;;;;;;;18.88;61.96;98904.37;1751725;82;21015;-44
2022/07/27 01:15:59;;;;;;;5.28;3.45;;;;;;;18.85;62.12;98907.36;1751755;82;21040;-44
2022/07/27 01:18:30;;;;;;;5.00;3.33;;;;;;;18.83;62.04;98901.50;1751726;82;21247;-44
2022/07/27 01:21:00;;;;;;;5.10;3.08;;;;;;;18.81;62.14;98899.80;1751434;82;21087;-44
2022/07/27 01:23:28;;;;;;;4.08;3.10;;;;;;;18.79;61.98;98901.41;1751463;82;21008;-44
2022/07/27 01:25:55;;;;;;;5.50;3.20;;;;;;;18.74;62.31;98899.94;1751434;82;21032;-44
2022/07/27 01:28:24;;;;;;;3.40;2.65;;;;;;;18.71;63.85;98897.28;1751410;82;21480;-44
2022/07/27 01:30:51;;;;;;;5.58;3.00;;;;;;;18.59;64.12;98899.47;1751521;82;21092;-45
2022/07/27 01:33:24;;;;;;;5.80;3.10;;;;;;;18.54;64.26;98901.34;1751317;82;21523;-44
2022/07/27 01:35:48;;;;;;;4.53;3.40;;;;;;;18.54;64.21;98906.83;1751023;82;21053;-45
2022/07/27 01:38:15;;;;;;;4.58;3.45;;;;;;;18.56;64.21;98911.91;1751344;82;21590;-44
2022/07/27 01:40:42;;;;;;;7.10;3.50;;;;;;;18.56;64.03;98914.05;1751419;82;21092;-44
2022/07/27 01:43:09;;;;;;;5.97;3.42;;;;;;;18.55;63.81;98913.88;1751603;82;21243;-45
2022/07/27 01:45:38;;;;;;;7.17;3.55;;;;;;;18.56;63.78;98913.28;1751469;82;21000;-44
2022/07/27 01:48:06;;;;;;;4.22;3.22;;;;;;;18.58;63.97;98909.52;1751479;82;20984;-44
2022/07/27 01:50:33;;;;;;;7.75;3.50;;;;;;;18.61;63.68;98914.93;1751513;82;21016;-44
2022/07/27 01:53:01;;;;;;;7.50;3.65;;;;;;;18.65;63.35;98907.39;1751639;82;21044;-44
2022/07/27 01:55:28;;;;;;;4.78;3.58;;;;;;;18.66;63.04;98902.67;1751691;82;21264;-44
2022/07/27 01:57:55;;;;;;;5.22;3.42;;;;;;;18.65;62.74;98909.36;1751613;82;21041;-44
2022/07/27 02:00:23;;;;;;;4.05;3.10;;;;;;;18.62;62.52;98908.25;1751730;82;21498;-44
2022/07/27 02:02:50;;;;;;;5.20;3.58;;;;;;;18.62;63.07;98912.96;1751576;82;21640;-44
2022/07/27 02:05:19;;;;;;;6.42;3.67;;;;;;;18.61;63.97;98910.81;1751383;82;21012;-44
2022/07/27 02:07:46;;;;;;;4.25;3.33;;;;;;;18.62;64.53;98901.38;1751641;82;21810;-44
2022/07/27 02:10:13;;;;;;;3.42;3.12;;;;;;;18.68;64.83;98898.92;1751465;82;21538;-44
2022/07/27 02:12:40;;;;;;;6.17;3.55;;;;;;;18.72;65.25;98904.33;1751514;82;21044;-45
2022/07/27 02:15:14;;;;;;;4.75;3.42;;;;;;;18.73;65.37;98903.91;1751436;82;20989;-44
2022/07/27 02:17:42;;;;;;;4.08;3.47;;;;;;;18.74;65.51;98907.41;1751479;82;21017;-44
2022/07/27 02:20:11;;;;;;;5.28;3.80;;;;;;;18.73;65.39;98906.66;1751697;82;21072;-44
2022/07/27 02:22:38;;;;;;;5.00;3.33;;;;;;;18.70;65.45;98906.11;1751506;82;20956;-44
2022/07/27 02:25:08;;;;;;;9.55;3.22;;;;;;;18.70;65.98;98909.45;1750857;82;21487;-45
2022/07/27 02:27:36;;;;;;;5.78;3.52;;;;;;;18.71;66.03;98905.52;1743523;82;21005;-44
2022/07/27 02:30:07;;;;;;;4.97;3.40;;;;;;;18.73;65.86;98902.53;1743593;82;21011;-44
2022/07/27 02:32:35;;;;;;;7.40;3.37;;;;;;;18.75;65.74;98904.84;1743443;82;20926;-45
2022/07/27 02:35:04;;;;;;;4.95;3.45;;;;;;;18.76;65.01;98899.53;1743500;82;21581;-44
2022/07/27 02:37:31;;;;;;;6.97;4.05;;;;;;;18.78;64.46;98902.63;1743517;82;21048;-44
2022/07/27 02:40:00;;;;;;;4.17;3.67;;;;;;;18.78;64.40;98898.52;1743428;82;21243;-44
2022/07/27 02:42:27;;;;;;;5.55;3.70;;;;;;;18.76;64.71;98897.56;1743750;82;21012;-44
2022/07/27 02:44:54;;;;;;;5.97;3.60;;;;;;;18.75;65.32;98899.34;1743558;82;21096;-44
2022/07/27 02:47:21;;;;;;;5.10;3.65;;;;;;;18.77;65.27;98899.11;1743755;82;20902;-44
2022/07/27 02:49:49;;;;;;;5.67;3.60;;;;;;;18.83;65.37;98902.87;1743486;82;20936;-44
2022/07/27 02:52:16;;;;;;;6.03;3.62;;;;;;;18.91;64.82;98907.04;1743563;82;21080;-44
2022/07/27 02:54:45;;;;;;;4.67;3.67;;;;;;;18.93;63.79;98903.84;1743426;82;21045;-44
2022/07/27 02:57:12;;;;;;;5.05;3.80;;;;;;;18.94;63.53;98900.69;1743597;82;21221;-45
2022/07/27 02:59:39;;;;;;;5.70;3.90;;;;;;;18.97;63.25;98896.33;1743232;82;21503;-44
2022/07/27 03:02:06;;;;;;;6.60;3.65;;;;;;;18.97;63.45;98899.84;1743571;82;20897;-44
2022/07/27 03:04:33;;;;;;;5.20;3.87;;;;;;;18.97;63.41;98898.47;1743445;82;21033;-44
2022/07/27 03:07:00;;;;;;;6.33;4.05;;;;;;;18.98;63.64;98900.59;1743487;82;20938;-44
2022/07/27 03:09:28;;;;;;;4.55;3.72;;;;;;;18.99;63.27;98899.41;1743386;82;20930;-44
2022/07/27 03:11:55;;;;;;;6.50;3.90;;;;;;;18.98;63.38;98902.74;1743570;82;20942;-45
2022/07/27 03:14:22;;;;;;;4.80;3.40;;;;;;;18.99;63.24;98909.02;1743394;82;21013;-44
2022/07/27 03:16:49;;;;;;;5.55;3.40;;;;;;;19.02;63.27;98904.06;1738315;82;21015;-44
2022/07/27 03:19:17;;;;;;;5.62;3.25;;;;;;;19.09;63.06;98906.62;1743520;82;21053;-44
2022/07/27 03:21:44;;;;;;;6.47;3.50;;;;;;;19.11;62.87;98911.11;1743603;82;21209;-45
2022/07/27 03:24:11;;;;;;;3.92;3.52;;;;;;;19.12;62.15;98909.14;1743587;82;20997;-44
2022/07/27 03:26:39;;;;;;;4.35;3.47;;;;;;;19.13;62.25;98905.95;1739738;82;21025;-44
2022/07/27 03:29:06;;;;;;;5.60;3.27;;;;;;;19.16;61.98;98908.45;1736837;82;20985;-44
2022/07/27 03:31:33;;;;;;;4.95;3.58;;;;;;;19.17;62.07;98909.38;1736920;82;21034;-44
2022/07/27 03:34:00;;;;;;;5.17;3.67;;;;;;;19.21;62.10;98914.81;1736633;82;21233;-44
2022/07/27 03:36:28;;;;;;;6.22;3.12;;;;;;;19.23;62.14;98917.89;1736610;82;20946;-45
2022/07/27 03:38:55;;;;;;;3.52;3.15;;;;;;;19.25;62.04;98919.63;1736534;82;21002;-45
2022/07/27 03:41:22;;;;;;;5.53;3.25;;;;;;;19.28;62.03;98915.41;1736602;82;21049;-45
2022/07/27 03:43:50;;;;;;;3.90;3.02;;;;;;;19.32;61.97;98914.72;1736594;82;21049;-45
2022/07/27 03:46:17;;;;;;;4.55;3.47;;;;;;;19.41;61.56;98908.65;1736615;82;21244;-45
2022/07/27 03:48:45;;;;;;;5.28;3.58;;;;;;;19.50;60.92;98907.47;1736470;82;20997;-45
2022/07/27 03:51:13;;;;;;;4.92;3.90;;;;;;;19.53;60.57;98912.88;1736512;82;21033;-45
2022/07/27 03:53:41;;;;;;;4.67;3.47;;;;;;;19.56;60.34;98912.61;1736547;82;21045;-45
2022/07/27 03:56:08;;;;;;;5.55;3.37;;;;;;;19.61;60.31;98914.06;1736745;82;21701;-45
2022/07/27 03:58:36;;;;;;;6.50;3.87;;;;;;;19.65;59.89;98913.39;1736660;82;21292;-45
2022/07/27 04:01:03;;;;;;;5.42;3.62;;;;;;;19.69;59.92;98914.08;1736364;82;21502;-44
2022/07/27 04:03:30;;;;;;;6.40;3.75;;;;;;;19.75;60.02;98915.11;1736584;82;20926;-45
2022/07/27 04:05:58;;;;;;;4.47;3.60;;;;;;;19.81;60.31;98913.36;1736459;82;20942;-45
2022/07/27 04:08:25;;;;;;;3.87;3.33;;;;;;;19.86;60.11;98914.21;1736366;82;21025;-44
2022/07/27 04:10:52;;;;;;;5.80;3.85;;;;;;;19.92;60.34;98909.73;1736504;82;21314;-45
2022/07/27 04:13:21;;;;;;;6.75;3.42;;;;;;;20.01;60.55;98908.52;1736527;82;20934;-45
2022/07/27 04:15:48;;;;;;;5.28;3.92;;;;;;;20.09;60.28;98913.24;1736539;82;20993;-45
2022/07/27 04:18:15;;;;;;;4.72;3.22;;;;;;;20.14;60.20;98910.71;1736691;82;21037;-44
2022/07/27 04:20:42;;;;;;;5.00;3.10;;;;;;;20.23;59.87;98907.35;1736809;82;21032;-45
2022/07/27 04:23:10;;;;;;;4.70;3.33;;;;;;;20.36;59.82;98908.97;1736769;82;21078;-45
2022/07/27 04:25:37;;;;;;;5.40;3.30;;;;;;;20.48;59.40;98903.94;1736634;82;21010;-45
2022/07/27 04:28:05;;;;;;;5.03;3.55;;;;;;;20.56;59.35;98910.78;1743700;82;21459;-45
2022/07/27 04:30:32;;;;;;;6.60;3.60;;;;;;;20.64;59.34;98912.11;1743500;82;21027;-45
2022/07/27 04:32:59;;;;;;;5.65;3.62;;;;;;;20.74;59.30;98912.41;1743402;82;21084;-45
2022/07/27 04:35:26;;;;;;;5.95;3.72;;;;;;;20.83;59.30;98918.03;1743198;82;23155;-45
2022/07/27 04:37:53;;;;;;;5.20;3.22;;;;;;;20.88;59.39;98919.47;1743267;82;20968;-45
2022/07/27 04:41:25;;;;;;;5.72;2.98;;;;;;;21.06;59.16;98916.34;1836062;78;22146;-44
2022/07/27 04:43:52;;;;;;;4.72;3.05;;;;;;;21.04;59.08;98921.54;1806239;79;21015;-45
2022/07/27 04:46:19;;;;;;;4.75;3.37;;;;;;;21.09;59.35;98916.08;1806588;79;21482;-45
2022/07/27 04:48:46;;;;;;;3.65;2.85;;;;;;;21.13;59.67;98910.66;1806533;79;21623;-45
2022/07/27 04:51:14;;;;;;;4.90;2.85;;;;;;;21.21;59.39;98916.09;1806256;79;21251;-45
2022/07/27 04:53:42;;;;;;;5.15;3.15;;;;;;;21.05;59.32;98876.84;1806198;79;21010;-45
2022/07/27 04:56:09;;;;;;;6.62;2.98;;;;;;;21.39;59.60;98916.16;1806423;79;20951;-45
2022/07/27 04:58:38;;;;;;;4.12;3.10;;;;;;;21.50;59.39;98915.19;1806504;79;20964;-45
2022/07/27 05:01:05;;;;;;;4.17;2.58;;;;;;;21.64;58.67;98918.86;1806589;79;20990;-45
2022/07/27 05:03:32;;;;;;;6.83;2.80;;;;;;;21.78;58.22;98913.50;1806388;79;21013;-45
2022/07/27 05:05:59;;;;;;;3.70;2.92;;;;;;;21.88;57.79;98917.26;1806487;79;21228;-45
2022/07/27 05:08:28;;;;;;;3.58;3.10;;;;;;;21.98;57.19;98917.53;1806495;79;21073;-45
2022/07/27 05:10:56;;;;;;;4.72;3.08;;;;;;;22.08;57.04;98928.83;1806553;79;21022;-45
2022/07/27 05:13:23;;;;;;;4.67;3.00;;;;;;;22.18;57.00;98926.13;1806383;79;20939;-45
2022/07/27 05:15:52;;;;;;;4.75;3.25;;;;;;;22.27;56.89;98928.36;1806238;79;20943;-45
2022/07/27 05:18:21;;;;;;;5.55;3.50;;;;;;;22.39;56.63;98925.39;1806250;79;20951;-45
2022/07/27 05:20:48;;;;;;;4.83;3.30;;;;;;;22.48;56.78;98919.31;1806281;79;21030;-45
2022/07/27 05:23:16;;;;;;;4.12;3.50;;;;;;;22.59;56.86;98918.94;1806296;79;21200;-45
2022/07/27 05:25:43;;;;;;;3.92;3.27;;;;;;;22.72;57.27;98919.65;1806109;79;21025;-45
2022/07/27 05:28:12;;;;;;;5.55;3.45;;;;;;;22.83;56.72;98923.40;1806366;79;20989;-45
2022/07/27 05:30:40;;;;;;;4.25;3.20;;;;;;;22.95;56.67;98921.14;1806319;79;20880;-45
2022/07/27 05:33:10;;;;;;;5.00;3.08;;;;;;;23.08;55.87;98919.69;1806359;79;20999;-45
2022/07/27 05:35:38;;;;;;;4.27;3.30;;;;;;;23.21;55.59;98920.34;1806669;79;21183;-45
2022/07/27 05:38:05;;;;;;;5.35;3.00;;;;;;;23.34;54.28;98921.77;1806284;79;20943;-45
2022/07/27 05:40:31;;;;;;;4.10;2.70;;;;;;;23.46;53.04;98924.31;1805001;79;20928;-45
2022/07/27 05:43:00;;;;;;;4.42;2.77;;;;;;;23.58;52.81;98926.78;1803576;79;21359;-45
2022/07/27 05:45:27;;;;;;;5.00;3.47;;;;;;;23.69;52.61;98925.13;1803692;79;21023;-45
2022/07/27 05:47:54;;;;;;;5.62;2.85;;;;;;;23.82;51.83;98927.14;1803796;79;21225;-45
2022/07/27 05:50:21;;;;;;;6.62;2.90;;;;;;;23.94;51.53;98926.86;1803684;79;20998;-45
2022/07/27 05:52:49;;;;;;;5.10;3.05;;;;;;;24.07;51.40;98928.86;1803021;79;21567;-45
2022/07/27 05:55:16;;;;;;;4.83;3.00;;;;;;;24.19;51.00;98928.60;1803040;79;21567;-45
2022/07/27 05:57:43;;;;;;;3.20;2.70;;;;;;;24.30;51.01;98923.38;1803273;79;21536;-45
2022/07/27 06:00:11;;;;;;;2.90;2.50;;;;;;;24.41;51.14;98932.58;1803294;79;21198;-45
2022/07/27 06:02:39;;;;;;;3.75;2.58;;;;;;;24.51;49.66;98928.57;1803289;79;21002;-45
2022/07/27 06:05:08;;;;;;;3.62;2.80;;;;;;;24.59;50.12;98932.58;1803232;79;21066;-45
2022/07/27 06:10:25;;;;;;;5.20;3.15;;;;;;;24.77;50.46;98940.08;1786965;79;21013;-45
2022/07/27 06:12:52;;;;;;;;;;;;;;;24.81;50.05;98939.30;1786785;80;21075;-45
2022/07/27 06:15:19;;;;;;;3.30;2.60;;;;;;;24.85;49.04;98942.67;1749165;82;20132;-45
2022/07/27 06:17:51;;;;;;;6.70;2.50;;;;;;;24.79;48.72;98941.76;1748854;82;21040;-45
2022/07/27 06:20:17;;;;;;;2.37;2.17;;;;;;;24.85;49.06;98952.38;1749177;82;21025;-45
2022/07/27 06:22:54;;;;;;;3.80;2.08;;;;;;;24.90;49.17;98951.78;1748985;82;21357;-45
2022/07/27 06:25:26;;;;;;;3.87;2.00;;;;;;;24.94;49.21;98947.61;1748969;82;21128;-45
2022/07/27 06:27:53;;;;;;;3.55;2.12;;;;;;;25.01;49.45;98954.23;1769394;80;20905;-45
2022/07/27 06:30:21;;;;;;;2.67;2.20;;;;;;;25.06;48.68;98955.59;1779822;80;21011;-45
2022/07/27 06:32:49;;;;;;;3.20;2.47;;;;;;;25.09;48.20;98956.81;1779880;80;20992;-45
2022/07/27 06:35:17;;;;;;;2.30;1.92;;;;;;;25.14;47.91;98962.34;1779914;80;20945;-45
2022/07/27 06:37:51;;;;;;;5.28;2.00;;;;;;;25.20;48.42;98956.93;1758236;80;21243;-45
2022/07/27 06:40:14;;;;;;;2.90;2.20;;;;;;;25.25;47.53;98957.07;1783125;80;20896;-45
2022/07/27 06:42:41;;;;;;;2.10;1.90;;;;;;;25.32;47.53;98958.11;1782766;80;21533;-45
2022/07/27 06:45:10;;;;;;;2.20;1.70;;;;;;;25.38;47.18;98959.63;1756748;81;21495;-45
2022/07/27 06:47:38;;;;;;;3.33;2.20;;;;;;;25.43;46.74;98955.59;1757188;81;21052;-45
2022/07/27 06:50:07;;;;;;;3.58;2.08;;;;;;;25.51;47.42;98958.17;1757258;81;23169;-44
2022/07/27 06:52:35;;;;;;;4.65;2.35;;;;;;;25.61;46.25;98960.95;1757496;81;20928;-45
2022/07/27 06:55:03;;;;;;;2.62;2.10;;;;;;;25.68;46.16;98952.27;1757410;81;21000;-45
2022/07/27 06:57:30;;;;;;;3.40;2.00;;;;;;;25.76;46.18;98956.22;1757325;81;20917;-45
2022/07/27 06:59:57;;;;;;;3.95;2.00;;;;;;;25.81;46.21;98961.12;1757541;81;21530;-45
2022/07/27 07:02:24;;;;;;;3.27;2.20;;;;;;;25.86;46.37;98966.03;1757469;81;21218;-45
2022/07/27 07:04:52;;;;;;;3.02;1.98;;;;;;;25.92;46.12;98964.16;1757426;80;20963;-45
2022/07/27 07:07:19;;;;;;;3.90;2.08;;;;;;;25.96;46.47;98957.17;1757192;81;21069;-45
2022/07/27 07:09:46;;;;;;;2.83;1.92;;;;;;;26.04;46.83;98960.38;1757265;81;21022;-46
2022/07/27 07:12:14;;;;;;;6.28;2.45;;;;;;;26.11;46.23;98954.45;1757356;81;21565;-45
2022/07/27 07:14:41;;;;;;;3.12;2.25;;;;;;;26.17;45.26;98959.50;1757214;81;21196;-46
2022/07/27 07:17:10;;;;;;;2.02;1.77;;;;;;;26.21;46.16;98960.70;1756996;81;20980;-45
2022/07/27 07:19:37;;;;;;;3.70;2.00;;;;;;;26.26;46.46;98961.47;1756913;81;21521;-46
2022/07/27 07:22:05;;;;;;;3.47;2.10;;;;;;;26.33;45.91;98954.94;1757074;81;20971;-45
2022/07/27 07:24:32;;;;;;;2.62;1.90;;;;;;;26.41;45.05;98951.77;1757015;81;21079;-46
2022/07/27 07:27:00;;;;;;;3.67;2.10;;;;;;;26.47;44.60;98958.22;1757434;80;20972;-46
2022/07/27 07:29:28;;;;;;;2.12;1.90;;;;;;;26.53;44.63;98957.70;1769445;80;20928;-46
2022/07/27 07:31:55;;;;;;;4.42;2.00;;;;;;;26.62;44.92;98956.22;1780103;80;20943;-46
2022/07/27 07:34:22;;;;;;;2.47;1.98;;;;;;;26.74;44.07;98954.55;1726756;83;21349;-46
2022/07/27 07:36:49;;;;;;;4.15;2.12;;;;;;;26.87;43.50;98955.67;1704095;83;21518;-46
2022/07/27 07:39:16;;;;;;;2.87;2.00;;;;;;;26.96;42.67;98954.20;1744594;81;21671;-46
2022/07/27 07:41:43;;;;;;;3.12;2.10;;;;;;;27.07;42.50;98957.16;1711611;81;20982;-45
2022/07/27 07:44:11;;;;;;;3.87;2.00;;;;;;;27.15;41.26;98958.94;1691917;84;20994;-46
2022/07/27 07:46:39;;;;;;;2.70;1.50;;;;;;;27.19;41.16;98945.59;1691726;84;20966;-46
2022/07/27 07:49:09;;;;;;;4.42;1.60;;;;;;;27.24;40.72;98946.30;1692534;84;21044;-46
2022/07/27 07:51:37;;;;;;;2.22;1.67;;;;;;;27.34;41.39;98948.34;1704771;84;21984;-46
2022/07/27 07:54:04;;;;;;;2.02;1.80;;;;;;;27.46;41.67;98952.81;1704814;84;21043;-46
2022/07/27 07:56:31;;;;;;;3.45;1.40;;;;;;;27.60;40.46;98945.08;1704920;84;21041;-46
2022/07/27 07:58:58;;;;;;;2.83;1.50;;;;;;;27.71;39.48;98943.84;1740281;82;21699;-46
2022/07/27 08:01:30;;;;;;;3.80;1.67;;;;;;;27.79;38.46;98947.00;1717394;81;21085;-46
2022/07/27 08:03:58;;;;;;;2.62;1.70;;;;;;;27.87;38.79;98948.88;1720532;83;23160;-45
2022/07/27 08:06:25;;;;;;;3.45;1.50;;;;;;;27.94;38.69;98942.88;1757003;81;20960;-45
2022/07/27 08:08:52;;;;;;;3.45;1.50;;;;;;;28.02;38.66;98944.02;1757241;81;20985;-45
2022/07/27 08:11:19;;;;;;;2.92;1.65;;;;;;;28.10;38.00;98951.31;1757375;81;21527;-45
2022/07/27 08:13:46;;;;;;;4.00;1.92;;;;;;;28.15;37.66;98941.52;1751682;81;21588;-45
2022/07/27 08:16:15;;;;;;;2.75;1.95;;;;;;;28.18;38.07;98944.70;1734335;82;21246;-44
2022/07/27 08:18:43;;;;;;;3.25;2.00;;;;;;;28.23;38.02;98935.64;1733752;82;21557;-45
2022/07/27 08:21:11;;;;;;;4.78;1.77;;;;;;;28.27;38.77;98937.62;1734174;82;21132;-45
2022/07/27 08:23:38;;;;;;;2.75;1.92;;;;;;;28.26;38.25;98945.83;1733977;82;21387;-44
2022/07/27 08:26:05;;;;;;;6.47;1.85;;;;;;;28.18;39.14;98939.13;1734123;82;21067;-45
2022/07/27 08:28:32;;;;;;;2.27;1.60;;;;;;;28.17;39.36;98945.98;1728465;82;21253;-45
2022/07/27 08:31:00;;;;;;;2.35;1.80;;;;;;;28.08;39.10;98946.22;1719479;82;20982;-45
2022/07/27 08:33:27;;;;;;;5.00;1.90;;;;;;;27.96;39.93;98949.37;1753394;81;21520;-45
2022/07/27 08:35:56;;;;;;;6.55;1.77;;;;;;;27.84;39.96;98949.84;1753297;81;21588;-45
2022/07/27 08:38:26;;;;;;;3.67;1.60;;;;;;;27.73;39.86;98952.49;1753407;81;21541;-45
2022/07/27 08:40:52;;;;;;;3.62;1.25;;;;;;;27.64;39.44;98948.45;1757016;80;21314;-45
2022/07/27 08:43:19;;;;;;;3.10;1.30;;;;;;;27.57;38.65;98948.84;1768602;81;21039;-44
2022/07/27 08:45:56;;;;;;;1.90;1.55;;;;;;;27.53;38.94;98949.67;1768567;81;21086;-45
2022/07/27 08:48:25;;;;;;;2.80;1.50;;;;;;;27.53;37.83;98946.27;1768628;81;21047;-45
2022/07/27 08:50:53;;;;;;;3.35;1.32;;;;;;;27.52;38.07;98948.91;1768672;81;21051;-45
2022/07/27 08:53:21;;;;;;;3.90;1.80;;;;;;;27.54;37.99;98947.03;1768557;81;21212;-45
2022/07/27 08:55:48;;;;;;;3.42;1.60;;;;;;;27.59;38.03;98946.34;1768396;81;21558;-45
2022/07/27 08:58:15;;;;;;;4.72;1.32;;;;;;;27.64;37.94;98950.58;1768914;81;21560;-45
2022/07/27 09:00:46;;;;;;;2.62;1.52;;;;;;;27.73;39.58;98949.71;1768601;81;21615;-45
2022/07/27 09:03:13;;;;;;;2.35;1.20;;;;;;;27.82;39.42;98960.72;1768841;81;21090;-45
2022/07/27 09:05:43;;;;;;;2.92;1.37;;;;;;;27.94;38.30;98956.81;1768796;81;21238;-45
2022/07/27 09:08:20;;;;;;;3.87;1.30;;;;;;;28.07;37.36;98952.30;1768794;81;20976;-44
2022/07/27 09:10:47;;;;;;;2.95;1.20;;;;;;;28.21;36.44;98946.53;1768456;81;20967;-44
2022/07/27 09:13:21;;;;;;;1.73;1.10;;;;;;;28.40;36.11;98950.55;1768756;81;21657;-45
2022/07/27 09:15:56;;;;;;;3.47;1.30;;;;;;;28.61;35.74;98948.50;1768446;81;20992;-45
2022/07/27 09:18:28;;;;;;;1.82;1.20;;;;;;;28.75;34.60;98948.42;1768775;81;21085;-44
2022/07/27 09:21:19;;;;;;;2.58;1.52;;;;;;;28.81;34.00;98946.42;1768332;81;21070;-45
2022/07/27 09:23:52;;;;;;;3.67;1.72;;;;;;;28.74;35.11;98948.90;1768348;81;21006;-45
2022/07/27 09:26:25;;;;;;;5.58;1.47;;;;;;;28.55;36.32;98948.44;1776959;80;21016;-45
2022/07/27 09:29:05;;;;;;;1.52;1.32;;;;;;;28.35;36.62;98955.44;1786163;79;21039;-45
2022/07/27 09:31:35;;;;;;;4.70;1.40;;;;;;;28.21;37.15;98956.29;1786420;80;21075;-45
2022/07/27 09:34:02;;;;;;;4.25;1.70;;;;;;;28.05;37.58;98965.32;1784370;80;20924;-44
2022/07/27 09:36:31;;;;;;;2.35;1.40;;;;;;;27.94;37.75;98955.42;1779159;79;20973;-45
2022/07/27 09:39:04;;;;;;;1.55;1.40;;;;;;;27.90;38.26;98954.09;1738076;82;21057;-44
2022/07/27 09:41:41;;;;;;;1.75;1.20;;;;;;;27.87;37.97;98962.05;1724451;83;21080;-44
2022/07/27 09:44:10;;;;;;;4.30;1.45;;;;;;;27.82;38.66;98957.93;1724505;82;20929;-44
2022/07/27 09:46:42;;;;;;;4.25;1.62;;;;;;;27.77;38.22;98961.41;1725420;83;20977;-45
2022/07/27 09:49:28;;;;;;;3.92;1.32;;;;;;;27.73;38.60;98963.64;1725955;83;20941;-45
2022/07/27 09:51:56;;;;;;;3.15;1.60;;;;;;;27.67;38.44;98964.17;1763796;80;21573;-45
2022/07/27 09:54:25;;;;;;;7.45;2.35;;;;;;;27.61;39.02;98966.11;1779763;80;20992;-44
2022/07/27 09:57:00;;;;;;;3.80;1.93;;;;;;;27.58;39.72;98967.86;1779918;80;21204;-44
2022/07/27 09:59:28;;;;;;;6.03;1.82;;;;;;;27.55;39.37;98971.59;1779778;80;21254;-44
2022/07/27 10:01:56;;;;;;;4.12;1.80;;;;;;;27.50;39.94;98975.06;1779436;80;21592;-44
2022/07/27 10:04:25;;;;;;;5.80;1.70;;;;;;;27.44;39.03;98974.20;1779805;80;20913;-45
2022/07/27 10:06:52;;;;;;;6.10;1.70;;;;;;;27.38;39.34;98973.97;1779803;80;21486;-44
2022/07/27 10:09:20;;;;;;;4.45;1.87;;;;;;;27.27;39.39;98978.73;1779888;80;20972;-44
2022/07/27 10:11:48;;;;;;;4.12;1.60;;;;;;;27.19;39.74;98972.80;1779707;79;20972;-42
2022/07/27 10:14:17;;;;;;;4.78;2.10;;;;;;;27.10;40.26;98984.03;1779825;80;21020;-42
2022/07/27 10:16:48;;;;;;;6.20;1.85;;;;;;;27.02;40.70;98983.48;1779333;80;21033;-42
2022/07/27 10:19:22;;;;;;;4.62;1.95;;;;;;;26.93;41.74;98984.98;1749296;80;20989;-45
2022/07/27 10:21:50;;;;;;;6.87;1.90;;;;;;;26.84;41.99;98988.59;1777832;80;21133;-45
2022/07/27 10:24:33;;;;;;;5.83;1.93;;;;;;;26.75;41.82;98988.06;1778081;80;20952;-45
2022/07/27 10:27:23;;;;;;;3.12;1.40;;;;;;;26.70;42.13;98990.74;1781200;80;21491;-45
2022/07/27 10:29:50;;;;;;;;;;;;;;;26.63;42.75;98989.09;1783372;80;20940;-45
2022/07/27 10:32:30;;;;;;;5.70;2.65;;;;;;;26.55;43.09;98991.34;1748976;80;20174;-45
2022/07/27 10:34:58;;;;;;;6.20;2.55;;;;;;;26.42;43.66;98990.84;1780954;80;21890;-45
2022/07/27 10:37:29;;;;;;;6.28;2.50;;;;;;;26.38;44.08;98997.98;1781245;80;21032;-46
2022/07/27 10:42:48;;;;;;;3.30;1.80;;;;;;;26.21;44.65;99011.52;1785671;79;21566;-46
2022/07/27 10:45:17;;;;;;;3.40;1.70;;;;;;;26.05;45.00;99016.06;1750080;81;21060;-46
2022/07/27 10:47:47;;;;;;;5.75;1.75;;;;;;;25.88;45.57;99013.55;1787120;79;23100;-46
2022/07/27 10:50:22;;;;;;;3.52;1.50;;;;;;;25.67;47.05;99018.13;1787245;79;20921;-46
2022/07/27 10:52:58;;;;;;;3.47;2.10;;;;;;;25.49;48.14;99026.51;1749018;81;21020;-46
2022/07/27 10:55:37;;;;;;;3.15;1.90;;;;;;;25.27;50.31;99029.50;1729379;83;21004;-46
2022/07/27 10:58:24;;;;;;;6.40;2.15;;;;;;;25.06;51.76;99029.10;1743464;82;21021;-46
2022/07/27 11:00:57;;;;;;;3.80;1.80;;;;;;;24.84;52.87;99027.86;1786070;80;21139;-46
2022/07/27 11:03:32;;;;;;;3.47;1.95;;;;;;;24.66;53.32;99028.65;1787197;80;21551;-46
2022/07/27 11:06:20;;;;;;;3.72;1.70;;;;;;;24.59;54.48;99015.09;1782064;79;21027;-46
2022/07/27 11:08:48;;;;;;;5.42;2.20;;;;;;;24.62;55.50;99024.50;1780721;80;21111;-46
2022/07/27 11:11:21;;;;;;;4.42;2.30;;;;;;;24.62;55.96;99022.50;1780881;80;21087;-46
2022/07/27 11:13:52;;;;;;;8.58;2.98;;;;;;;24.61;56.57;99026.50;1781380;80;21093;-45
2022/07/27 11:16:20;;;;;;;3.92;2.50;;;;;;;24.64;57.99;99025.56;1786664;79;20965;-46
2022/07/27 11:18:56;;;;;;;6.90;2.95;;;;;;;24.68;58.44;99026.20;1780758;80;20928;-46
2022/07/27 11:21:34;;;;;;;5.60;2.42;;;;;;;24.77;57.66;99021.26;1780556;80;21087;-46
2022/07/27 11:24:09;;;;;;;6.87;2.90;;;;;;;24.87;58.56;99014.50;1780693;79;21036;-45
2022/07/27 11:26:42;;;;;;;7.10;2.70;;;;;;;24.95;59.05;99016.33;1780836;80;21211;-46
2022/07/27 11:29:13;;;;;;;2.95;2.20;;;;;;;24.97;59.25;99011.87;1781285;79;21003;-46
2022/07/27 11:31:43;;;;;;;3.35;2.30;;;;;;;25.01;58.61;99015.86;1781186;80;20983;-45
2022/07/27 11:34:10;;;;;;;4.83;2.37;;;;;;;25.01;58.13;99020.80;1781759;79;20988;-46
2022/07/27 11:36:48;;;;;;;4.70;2.40;;;;;;;25.01;58.53;99013.86;1781208;80;21083;-46
2022/07/27 11:39:25;;;;;;;3.83;2.17;;;;;;;25.02;58.71;99018.80;1781349;80;21033;-46
2022/07/27 11:41:56;;;;;;;2.70;1.60;;;;;;;25.01;57.99;99017.24;1777209;80;20988;-46
2022/07/27 11:44:24;;;;;;;1.85;1.52;;;;;;;24.98;57.54;99023.73;1766682;81;21056;-46
2022/07/27 11:46:52;;;;;;;4.08;1.80;;;;;;;24.95;56.84;99019.09;1766755;81;21040;-46
2022/07/27 11:49:29;;;;;;;2.45;1.75;;;;;;;24.90;57.55;99019.11;1766854;81;20997;-46